createdAt,value
2022-11-22T00:00:48.316Z,8.93
2022-11-22T00:03:17.094Z,8.97
2022-11-22T00:05:43.711Z,9.17
2022-11-22T00:08:12.056Z,9.22
2022-11-22T00:10:41.126Z,9.18
2022-11-22T00:13:07.872Z,9.04
2022-11-22T00:15:34.781Z,8.93
2022-11-22T00:18:03.671Z,8.81
2022-11-22T00:20:33.024Z,8.69
2022-11-22T00:23:05.990Z,8.69
2022-11-22T00:25:32.964Z,8.68
2022-11-22T00:28:00.230Z,8.74
2022-11-22T00:30:26.828Z,8.80
2022-11-22T00:32:53.458Z,8.78
2022-11-22T00:35:20.494Z,8.89
2022-11-22T00:37:47.424Z,8.88
2022-11-22T00:40:17.220Z,8.85
2022-11-22T00:42:43.993Z,8.97
2022-11-22T00:45:10.950Z,8.79
2022-11-22T00:47:40.697Z,8.79
2022-11-22T00:50:07.351Z,8.74
2022-11-22T00:52:33.955Z,8.72
2022-11-22T00:55:01.004Z,8.83
2022-11-22T00:57:27.900Z,8.91
2022-11-22T00:59:58.310Z,8.87
2022-11-22T01:02:24.985Z,8.97
2022-11-22T01:04:52.499Z,9.18
2022-11-22T01:07:19.243Z,9.17
2022-11-22T01:09:46.062Z,9.16
2022-11-22T01:12:12.928Z,9.13
2022-11-22T01:14:40.108Z,9.18
2022-11-22T01:17:07.227Z,9.35
2022-11-22T01:19:36.984Z,9.42
2022-11-22T01:22:03.522Z,9.51
2022-11-22T01:24:30.427Z,9.58
2022-11-22T01:26:57.411Z,9.72
2022-11-22T01:29:24.237Z,9.85
2022-11-22T01:31:51.164Z,9.95
2022-11-22T01:34:19.205Z,10.03
2022-11-22T01:36:48.517Z,10.03
2022-11-22T01:39:15.477Z,9.98
2022-11-22T01:41:42.505Z,9.91
2022-11-22T01:44:25.037Z,9.71
2022-11-22T01:47:02.903Z,9.72
2022-11-22T01:49:55.440Z,9.76
2022-11-22T01:52:25.712Z,9.74
2022-11-22T01:54:58.441Z,9.74
2022-11-22T01:57:30.380Z,9.81
2022-11-22T02:00:02.583Z,9.84
2022-11-22T02:02:33.702Z,9.90
2022-11-22T02:05:04.347Z,9.85
2022-11-22T02:07:43.478Z,9.85
2022-11-22T02:10:11.265Z,9.84
2022-11-22T02:12:39.015Z,9.83
2022-11-22T02:15:08.116Z,9.71
2022-11-22T02:17:34.761Z,9.69
2022-11-22T02:20:07.140Z,9.79
2022-11-22T02:22:44.338Z,9.90
2022-11-22T02:25:33.085Z,9.94
2022-11-22T02:28:00.120Z,9.93
2022-11-22T02:30:26.855Z,9.80
2022-11-22T02:32:53.689Z,9.90
2022-11-22T02:35:24.068Z,9.91
2022-11-22T02:38:03.007Z,9.94
2022-11-22T02:40:34.825Z,9.93
2022-11-22T02:43:37.138Z,9.94
2022-11-22T02:46:06.451Z,10.00
2022-11-22T02:48:33.641Z,9.96
2022-11-22T02:51:01.104Z,10.02
2022-11-22T02:53:30.704Z,10.07
2022-11-22T02:55:58.021Z,9.95
2022-11-22T02:58:24.567Z,10.04
2022-11-22T03:00:51.195Z,10.04
2022-11-22T03:03:17.890Z,10.08
2022-11-22T03:05:44.798Z,10.17
2022-11-22T03:08:11.453Z,10.23
2022-11-22T03:10:38.146Z,10.12
2022-11-22T03:13:04.672Z,10.07
2022-11-22T03:15:31.211Z,10.10
2022-11-22T03:18:01.616Z,10.09
2022-11-22T03:20:29.190Z,10.12
2022-11-22T03:22:58.799Z,10.12
2022-11-22T03:25:25.845Z,10.10
2022-11-22T03:27:52.602Z,10.04
2022-11-22T03:30:19.440Z,10.01
2022-11-22T03:32:46.036Z,10.03
2022-11-22T03:35:13.033Z,10.01
2022-11-22T03:37:39.759Z,9.99
2022-11-22T03:40:07.454Z,9.92
2022-11-22T03:42:34.282Z,9.86
2022-11-22T03:45:01.220Z,9.81
2022-11-22T03:47:28.128Z,9.74
2022-11-22T03:49:54.842Z,9.72
2022-11-22T03:52:21.508Z,9.71
2022-11-22T03:54:48.107Z,9.70
2022-11-22T03:57:16.998Z,9.72
2022-11-22T03:59:43.959Z,9.80
2022-11-22T04:02:12.735Z,9.89
2022-11-22T04:04:39.512Z,9.99
2022-11-22T04:07:06.802Z,10.07
2022-11-22T04:09:33.952Z,10.12
2022-11-22T04:12:00.800Z,10.13
2022-11-22T04:14:46.085Z,10.14
2022-11-22T04:17:14.090Z,10.14
2022-11-22T04:20:01.351Z,10.16
2022-11-22T04:22:29.822Z,10.11
2022-11-22T04:25:14.594Z,10.13
2022-11-22T04:27:41.329Z,10.19
2022-11-22T04:30:08.404Z,10.15
2022-11-22T04:32:47.416Z,10.12
2022-11-22T04:35:15.910Z,10.01
2022-11-22T04:37:43.366Z,9.87
2022-11-22T04:40:10.806Z,9.78
2022-11-22T04:43:03.658Z,9.69
2022-11-22T04:45:30.512Z,9.59
2022-11-22T04:48:00.296Z,9.59
2022-11-22T04:50:47.551Z,9.67
2022-11-22T04:53:15.585Z,9.67
2022-11-22T04:55:44.721Z,9.70
2022-11-22T04:58:12.054Z,9.60
2022-11-22T05:00:39.060Z,9.38
2022-11-22T05:03:06.463Z,9.35
2022-11-22T05:05:38.443Z,9.30
2022-11-22T05:08:07.072Z,9.24
2022-11-22T05:10:55.795Z,9.19
2022-11-22T05:13:37.569Z,9.11
2022-11-22T05:16:06.448Z,9.06
2022-11-22T05:18:33.435Z,9.05
2022-11-22T05:21:08.317Z,9.18
2022-11-22T05:23:56.427Z,9.27
2022-11-22T05:26:24.181Z,9.34
2022-11-22T05:28:51.094Z,9.40
2022-11-22T05:31:23.563Z,9.46
2022-11-22T05:33:52.410Z,9.53
2022-11-22T05:36:20.022Z,9.60
2022-11-22T05:38:47.047Z,9.64
2022-11-22T05:41:15.562Z,9.63
2022-11-22T05:43:42.488Z,9.63
2022-11-22T05:46:10.498Z,9.65
2022-11-22T05:48:39.702Z,9.68
2022-11-22T05:51:07.739Z,9.71
2022-11-22T05:53:35.789Z,9.78
2022-11-22T05:56:10.561Z,9.87
2022-11-22T05:58:38.100Z,9.94
2022-11-22T06:01:09.058Z,9.98
2022-11-22T06:03:39.047Z,9.99
2022-11-22T06:06:07.173Z,9.96
2022-11-22T06:08:36.762Z,9.88
2022-11-22T06:11:14.433Z,9.92
2022-11-22T06:13:44.088Z,9.89
2022-11-22T06:16:11.639Z,9.84
2022-11-22T06:18:38.740Z,9.83
2022-11-22T06:21:10.566Z,9.81
2022-11-22T06:23:37.943Z,9.86
2022-11-22T06:26:10.880Z,9.78
2022-11-22T06:28:38.852Z,9.63
2022-11-22T06:31:12.298Z,9.52
2022-11-22T06:33:40.006Z,9.43
2022-11-22T06:36:12.098Z,9.40
2022-11-22T06:38:40.051Z,9.40
2022-11-22T06:41:12.200Z,9.43
2022-11-22T06:43:46.697Z,9.46
2022-11-22T06:46:15.699Z,9.61
2022-11-22T06:48:42.982Z,9.74
2022-11-22T06:51:12.120Z,9.82
2022-11-22T06:53:47.225Z,9.85
2022-11-22T06:56:23.577Z,9.88
2022-11-22T06:58:52.013Z,9.90
2022-11-22T07:01:24.199Z,9.90
2022-11-22T07:03:51.701Z,9.88
2022-11-22T07:06:19.485Z,9.86
2022-11-22T07:08:47.841Z,9.91
2022-11-22T07:11:20.574Z,9.89
2022-11-22T07:13:48.249Z,9.72
2022-11-22T07:16:17.512Z,9.71
2022-11-22T07:18:44.764Z,9.64
2022-11-22T07:21:15.417Z,9.73
2022-11-22T07:23:44.428Z,9.84
2022-11-22T07:26:11.712Z,9.86
2022-11-22T07:28:38.581Z,9.91
2022-11-22T07:31:08.090Z,9.89
2022-11-22T07:33:35.237Z,9.90
2022-11-22T07:36:10.312Z,9.88
2022-11-22T07:38:37.363Z,9.94
2022-11-22T07:41:04.357Z,9.95
2022-11-22T07:43:31.336Z,9.97
2022-11-22T07:46:02.784Z,9.89
2022-11-22T07:48:29.516Z,9.79
2022-11-22T07:50:56.147Z,9.82
2022-11-22T07:53:23.290Z,9.84
2022-11-22T07:55:50.224Z,9.91
2022-11-22T07:58:16.771Z,9.89
2022-11-22T08:00:43.390Z,9.88
2022-11-22T08:03:13.138Z,9.90
2022-11-22T08:05:42.260Z,9.93
2022-11-22T08:08:08.866Z,10.00
2022-11-22T08:10:35.483Z,10.03
2022-11-22T08:13:02.067Z,10.06
2022-11-22T08:15:28.859Z,9.91
2022-11-22T08:17:55.941Z,9.86
2022-11-22T08:20:23.027Z,9.95
2022-11-22T08:22:52.672Z,10.10
2022-11-22T08:25:19.614Z,10.23
2022-11-22T08:27:46.143Z,10.33
2022-11-22T08:30:15.576Z,10.21
2022-11-22T08:32:42.267Z,10.16
2022-11-22T08:35:09.773Z,10.24
2022-11-22T08:37:39.865Z,10.26
2022-11-22T08:40:07.488Z,10.32
2022-11-22T08:42:34.271Z,10.38
2022-11-22T08:45:00.996Z,10.45
2022-11-22T08:47:27.723Z,10.46
2022-11-22T08:49:54.758Z,10.60
2022-11-22T08:52:21.524Z,10.76
2022-11-22T08:54:48.389Z,10.90
2022-11-22T08:57:15.293Z,10.93
2022-11-22T08:59:42.102Z,10.90
2022-11-22T09:02:10.038Z,10.95
2022-11-22T09:04:36.746Z,11.08
2022-11-22T09:09:50.688Z,11.20
2022-11-22T09:12:17.906Z,11.33
2022-11-22T09:14:44.510Z,11.46
2022-11-22T09:17:17.325Z,11.56
2022-11-22T09:19:44.759Z,11.51
2022-11-22T09:22:11.528Z,11.48
2022-11-22T09:24:38.523Z,11.35
2022-11-22T09:27:05.856Z,11.20
2022-11-22T09:29:33.049Z,11.19
2022-11-22T09:31:59.996Z,11.29
2022-11-22T09:34:26.823Z,11.45
2022-11-22T09:36:56.940Z,11.58
2022-11-22T09:39:23.944Z,11.68
2022-11-22T09:41:59.466Z,11.63
2022-11-22T09:44:37.984Z,11.72
2022-11-22T09:47:29.601Z,11.88
2022-11-22T09:50:05.183Z,11.93
2022-11-22T09:52:38.698Z,11.92
2022-11-22T09:55:58.004Z,12.06
2022-11-22T09:58:40.391Z,12.02
2022-11-22T10:01:31.444Z,11.87
2022-11-22T10:04:03.102Z,11.79
2022-11-22T10:06:35.439Z,11.78
2022-11-22T10:09:11.906Z,11.80
2022-11-22T10:12:06.601Z,11.82
2022-11-22T10:15:10.912Z,11.82
2022-11-22T10:17:56.018Z,11.63
2022-11-22T10:20:26.427Z,11.58
2022-11-22T10:22:54.102Z,11.58
2022-11-22T10:25:40.698Z,11.56
2022-11-22T10:28:31.257Z,11.73
2022-11-22T10:31:12.080Z,11.80
2022-11-22T10:33:47.239Z,11.61
2022-11-22T10:36:26.638Z,11.39
2022-11-22T10:39:10.170Z,11.51
2022-11-22T10:41:58.857Z,11.66
2022-11-22T10:44:41.348Z,11.72
2022-11-22T10:47:14.135Z,11.75
2022-11-22T10:49:52.209Z,11.73
2022-11-22T10:52:32.458Z,11.92
2022-11-22T10:55:34.631Z,11.82
2022-11-22T10:58:13.367Z,11.83
2022-11-22T11:00:45.204Z,11.77
2022-11-22T11:03:34.222Z,11.90
2022-11-22T11:06:26.746Z,11.95
2022-11-22T11:12:04.147Z,12.13
2022-11-22T11:15:00.167Z,12.38
2022-11-22T11:17:31.736Z,12.33
2022-11-22T11:20:03.116Z,12.27
2022-11-22T11:23:06.351Z,12.34
2022-11-22T11:25:40.937Z,12.64
2022-11-22T11:28:12.894Z,12.65
2022-11-22T11:31:01.094Z,12.56
2022-11-22T11:33:38.155Z,12.46
2022-11-22T11:36:20.206Z,12.41
2022-11-22T11:38:46.837Z,12.58
2022-11-22T11:41:31.643Z,12.70
2022-11-22T11:44:03.256Z,12.70
2022-11-22T11:46:45.292Z,13.01
2022-11-22T11:49:18.451Z,13.20
2022-11-22T11:51:53.566Z,13.13
2022-11-22T11:54:25.839Z,13.23
2022-11-22T11:56:58.070Z,13.19
2022-11-22T11:59:50.252Z,12.92
2022-11-22T12:02:24.470Z,12.75
2022-11-22T12:04:51.163Z,12.75
2022-11-22T12:07:28.529Z,12.73
2022-11-22T12:09:55.963Z,12.53
2022-11-22T12:12:37.997Z,12.57
2022-11-22T12:15:29.199Z,12.59
2022-11-22T12:18:07.375Z,12.68
2022-11-22T12:21:07.517Z,12.80
2022-11-22T12:23:51.252Z,12.96
2022-11-22T12:26:19.024Z,12.90
2022-11-22T12:28:46.270Z,12.99
2022-11-22T12:31:39.727Z,13.03
2022-11-22T12:34:13.967Z,13.01
2022-11-22T12:36:54.506Z,12.74
2022-11-22T12:39:29.482Z,12.69
2022-11-22T12:42:23.189Z,12.60
2022-11-22T12:45:01.755Z,12.48
2022-11-22T12:47:38.715Z,12.39
2022-11-22T12:50:14.475Z,12.51
2022-11-22T12:52:47.547Z,12.52
2022-11-22T12:55:26.471Z,12.62
2022-11-22T12:57:59.385Z,12.73
2022-11-22T13:00:29.697Z,12.78
2022-11-22T13:02:59.468Z,12.70
2022-11-22T13:05:31.602Z,12.68
2022-11-22T13:08:13.501Z,12.61
2022-11-22T13:10:48.201Z,12.61
2022-11-22T13:13:38.871Z,12.64
2022-11-22T13:16:11.254Z,12.56
2022-11-22T13:18:44.007Z,12.52
2022-11-22T13:21:19.618Z,12.32
2022-11-22T13:24:08.075Z,12.39
2022-11-22T13:27:03.324Z,12.46
2022-11-22T13:29:33.393Z,12.37
2022-11-22T13:32:12.510Z,12.39
2022-11-22T13:34:41.116Z,12.16
2022-11-22T13:37:16.347Z,12.10
2022-11-22T13:39:47.068Z,12.16
2022-11-22T13:42:25.515Z,12.19
2022-11-22T13:45:07.964Z,12.24
2022-11-22T13:47:38.436Z,12.21
2022-11-22T13:50:44.328Z,12.22
2022-11-22T13:53:19.972Z,12.10
2022-11-22T13:55:47.107Z,12.14
2022-11-22T13:58:25.955Z,12.19
2022-11-22T14:00:56.991Z,12.22
2022-11-22T14:03:34.145Z,12.23
2022-11-22T14:06:14.302Z,12.18
2022-11-22T14:08:41.450Z,12.19
2022-11-22T14:11:26.307Z,12.18
2022-11-22T14:14:16.975Z,12.24
2022-11-22T14:16:57.607Z,12.19
2022-11-22T14:19:50.350Z,12.14
2022-11-22T14:22:19.231Z,12.03
2022-11-22T14:24:56.128Z,12.04
2022-11-22T14:27:48.732Z,11.94
2022-11-22T14:30:22.082Z,11.90
2022-11-22T14:32:49.871Z,11.86
2022-11-22T14:35:29.268Z,11.76
2022-11-22T14:38:28.427Z,11.75
2022-11-22T14:41:27.315Z,11.73
2022-11-22T14:43:58.045Z,11.66
2022-11-22T14:46:51.757Z,11.61
2022-11-22T14:49:43.239Z,11.52
2022-11-22T14:52:26.353Z,11.39
2022-11-22T14:54:57.405Z,11.30
2022-11-22T14:57:26.549Z,11.41
2022-11-22T15:00:15.278Z,11.43
2022-11-22T15:02:51.014Z,11.32
2022-11-22T15:09:14.763Z,11.30
2022-11-22T15:09:15.080Z,11.30
2022-11-22T15:11:33.911Z,11.09
2022-11-22T15:14:25.679Z,11.10
2022-11-22T15:59:45.240Z,10.49
2022-11-22T16:02:19.701Z,10.47
2022-11-22T16:06:04.545Z,10.44
2022-11-22T16:07:49.693Z,10.32
2022-11-22T16:10:37.228Z,10.36
2022-11-22T16:13:19.263Z,10.37
2022-11-22T16:16:03.010Z,10.33
2022-11-22T16:18:30.084Z,10.30
2022-11-22T16:21:04.040Z,10.17
2022-11-22T16:23:33.822Z,10.15
2022-11-22T16:26:13.633Z,10.05
2022-11-22T16:28:40.280Z,9.96
2022-11-22T16:31:18.995Z,10.05
2022-11-22T16:33:46.234Z,9.95
2022-11-22T16:36:14.788Z,10.02
2022-11-22T16:38:42.703Z,10.00
2022-11-22T16:41:25.718Z,9.90
2022-11-22T16:43:55.850Z,10.02
2022-11-22T16:46:22.863Z,10.20
2022-11-22T16:48:50.503Z,10.30
2022-11-22T16:51:25.240Z,10.31
2022-11-22T16:53:55.784Z,10.29
2022-11-22T16:56:27.652Z,10.34
2022-11-22T16:58:58.488Z,10.16
2022-11-22T17:01:31.062Z,10.20
2022-11-22T17:03:59.430Z,10.15
2022-11-22T17:06:28.588Z,10.20
2022-11-22T17:08:57.536Z,10.16
2022-11-22T17:11:26.913Z,10.18
2022-11-22T17:13:54.506Z,10.02
2022-11-22T17:16:21.435Z,10.00
2022-11-22T17:18:48.466Z,10.06
2022-11-22T17:21:18.080Z,10.00
2022-11-22T17:23:45.611Z,10.03
2022-11-22T17:26:12.314Z,10.00
2022-11-22T17:28:38.945Z,10.08
2022-11-22T17:31:13.721Z,10.11
2022-11-22T17:33:40.709Z,10.05
2022-11-22T17:36:21.068Z,10.01
2022-11-22T17:38:48.001Z,9.94
2022-11-22T17:41:14.657Z,10.01
2022-11-22T17:43:41.486Z,10.13
2022-11-22T17:46:08.239Z,10.06
2022-11-22T17:48:35.031Z,9.95
2022-11-22T17:51:11.558Z,9.92
2022-11-22T17:53:39.195Z,9.93
2022-11-22T17:56:11.250Z,9.93
2022-11-22T17:58:39.493Z,9.95
2022-11-22T18:01:09.153Z,9.96
2022-11-22T18:03:36.141Z,9.85
2022-11-22T18:06:03.282Z,9.86
2022-11-22T18:08:30.588Z,9.72
2022-11-22T18:10:59.705Z,9.69
2022-11-22T18:13:27.988Z,9.59
2022-11-22T18:16:01.648Z,9.61
2022-11-22T18:18:54.982Z,9.53
2022-11-22T18:21:17.665Z,9.55
2022-11-22T18:23:45.294Z,9.48
2022-11-22T18:29:32.370Z,9.49
2022-11-22T18:31:54.353Z,9.39
2022-11-22T18:34:24.778Z,9.31
2022-11-22T18:37:07.526Z,9.31
2022-11-22T18:39:39.381Z,9.32
2022-11-22T18:42:13.411Z,9.37
2022-11-22T18:44:40.010Z,9.33
2022-11-22T18:47:07.442Z,9.27
2022-11-22T18:49:35.110Z,9.23
2022-11-22T18:52:02.063Z,9.22
2022-11-22T18:54:28.885Z,9.18
2022-11-22T18:56:55.715Z,9.20
2022-11-22T18:59:22.299Z,9.13
2022-11-22T19:01:48.971Z,9.13
2022-11-22T19:04:15.972Z,9.18
2022-11-22T19:06:43.608Z,9.25
2022-11-22T19:09:11.116Z,9.20
2022-11-22T19:11:40.793Z,9.20
2022-11-22T19:14:07.706Z,9.19
2022-11-22T19:16:34.765Z,9.19
2022-11-22T19:19:01.666Z,9.20
2022-11-22T19:21:29.886Z,9.23
2022-11-22T19:23:57.439Z,9.23
2022-11-22T19:26:26.032Z,9.16
2022-11-22T19:28:56.287Z,9.18
2022-11-22T19:31:29.470Z,9.17
2022-11-22T19:33:56.627Z,9.13
2022-11-22T19:36:30.829Z,9.13
2022-11-22T19:39:00.184Z,9.02
2022-11-22T19:41:27.078Z,8.99
2022-11-22T19:43:55.498Z,9.00
2022-11-22T19:46:22.171Z,9.01
2022-11-22T19:48:53.820Z,9.05
2022-11-22T19:51:21.448Z,9.07
2022-11-22T19:53:48.261Z,9.00
2022-11-22T19:56:17.673Z,9.02
2022-11-22T19:58:49.719Z,9.05
2022-11-22T20:01:16.773Z,9.07
2022-11-22T20:03:44.471Z,9.07
2022-11-22T20:06:13.926Z,9.01
2022-11-22T20:08:41.123Z,9.00
2022-11-22T20:11:11.549Z,9.07
2022-11-22T20:13:40.171Z,9.03
2022-11-22T20:16:16.545Z,9.02
2022-11-22T20:18:43.281Z,8.97
2022-11-22T20:21:10.959Z,8.98
2022-11-22T20:23:38.375Z,8.87
2022-11-22T20:26:10.190Z,8.81
2022-11-22T20:28:38.293Z,8.86
2022-11-22T20:31:06.214Z,8.86
2022-11-22T20:33:38.075Z,8.88
2022-11-22T20:36:06.766Z,8.88
2022-11-22T20:38:35.415Z,8.92
2022-11-22T20:41:02.106Z,8.91
2022-11-22T20:43:31.223Z,8.98
2022-11-22T20:46:01.662Z,8.98
2022-11-22T20:48:28.602Z,9.00
2022-11-22T20:50:55.253Z,9.02
2022-11-22T20:53:21.909Z,8.97
2022-11-22T20:55:48.561Z,8.98
2022-11-22T20:58:15.163Z,8.95
2022-11-22T21:00:41.806Z,8.99
2022-11-22T21:03:09.265Z,8.99
2022-11-22T21:05:36.415Z,8.79
2022-11-22T21:08:05.424Z,8.71
2022-11-22T21:10:32.658Z,8.72
2022-11-22T21:12:59.324Z,8.82
2022-11-22T21:15:25.988Z,8.79
2022-11-22T21:18:17.647Z,8.84
2022-11-22T21:20:42.095Z,8.73
2022-11-22T21:23:09.294Z,8.70
2022-11-22T21:25:39.916Z,8.68
2022-11-22T21:28:09.765Z,8.65
2022-11-22T21:30:36.832Z,8.60
2022-11-22T21:33:03.602Z,8.68
2022-11-22T21:35:30.210Z,8.77
2022-11-22T21:37:56.895Z,8.83
2022-11-22T21:40:23.536Z,8.82
2022-11-22T21:42:50.093Z,8.79
2022-11-22T21:45:16.803Z,8.74
2022-11-22T21:47:43.529Z,8.74
2022-11-22T21:50:11.935Z,8.70
2022-11-22T21:52:39.014Z,8.73
2022-11-22T21:55:06.228Z,8.81
2022-11-22T21:57:34.404Z,8.82
2022-11-22T22:00:01.153Z,8.73
2022-11-22T22:02:29.635Z,8.66
2022-11-22T22:04:56.825Z,8.66
2022-11-22T22:07:45.102Z,8.60
2022-11-22T22:10:12.454Z,8.58
2022-11-22T22:12:47.819Z,8.74
2022-11-22T22:15:14.512Z,8.87
2022-11-22T22:17:41.460Z,8.89
2022-11-22T22:20:08.546Z,8.84
2022-11-22T22:22:37.446Z,8.83
2022-11-22T22:25:06.123Z,8.82
2022-11-22T22:27:33.715Z,8.80
2022-11-22T22:30:00.764Z,8.71
2022-11-22T22:32:28.145Z,8.68
2022-11-22T22:34:58.058Z,8.68
2022-11-22T22:37:24.689Z,8.66
2022-11-22T22:39:51.877Z,8.71
2022-11-22T22:42:19.228Z,8.86
2022-11-22T22:44:47.554Z,8.92
2022-11-22T22:47:14.378Z,9.04
2022-11-22T22:49:40.963Z,9.13
2022-11-22T22:52:07.616Z,9.24
2022-11-22T22:54:35.884Z,9.18
2022-11-22T22:57:08.398Z,9.07
2022-11-22T22:59:35.307Z,8.98
2022-11-22T23:02:02.094Z,8.87
2022-11-22T23:04:28.967Z,8.81
2022-11-22T23:06:55.676Z,8.80
2022-11-22T23:09:22.554Z,8.77
2022-11-22T23:12:07.924Z,8.74
2022-11-22T23:14:34.542Z,8.74
2022-11-22T23:17:01.171Z,8.73
2022-11-22T23:19:27.939Z,8.69
2022-11-22T23:21:55.208Z,8.63
2022-11-22T23:24:22.132Z,8.75
2022-11-22T23:26:49.001Z,8.93
2022-11-22T23:29:15.593Z,9.10
2022-11-22T23:31:42.272Z,9.20
2022-11-22T23:34:11.024Z,9.11
2022-11-22T23:36:40.982Z,9.23
2022-11-22T23:39:08.563Z,9.32
2022-11-22T23:41:35.222Z,9.28
2022-11-22T23:44:01.933Z,9.18
2022-11-22T23:46:31.773Z,9.30
2022-11-22T23:49:00.480Z,9.40
2022-11-22T23:51:28.570Z,9.40
2022-11-22T23:53:56.895Z,9.44
2022-11-22T23:56:24.776Z,9.41
2022-11-22T23:58:51.948Z,9.49
